createdAt,value
2023-05-09T00:00:27.449Z,13.60
2023-05-09T00:01:06.952Z,13.60
2023-05-09T00:01:39.985Z,13.60
2023-05-09T00:02:12.821Z,13.50
2023-05-09T00:02:45.908Z,13.50
2023-05-09T00:03:17.861Z,13.50
2023-05-09T00:03:51.306Z,13.50
2023-05-09T00:04:24.193Z,13.50
2023-05-09T00:04:56.840Z,13.40
2023-05-09T00:05:29.681Z,13.40
2023-05-09T00:06:02.396Z,13.40
2023-05-09T00:06:34.511Z,13.40
2023-05-09T00:07:07.382Z,13.40
2023-05-09T00:07:39.194Z,13.40
2023-05-09T00:08:11.137Z,13.40
2023-05-09T00:08:45.384Z,13.40
2023-05-09T00:09:17.264Z,13.40
2023-05-09T00:09:49.109Z,13.40
2023-05-09T00:10:22.059Z,13.50
2023-05-09T00:10:54.007Z,13.40
2023-05-09T00:11:25.966Z,13.40
2023-05-09T00:11:57.765Z,13.40
2023-05-09T00:12:30.914Z,13.40
2023-05-09T00:13:02.940Z,13.40
2023-05-09T00:13:34.852Z,13.40
2023-05-09T00:14:06.699Z,13.30
2023-05-09T00:14:40.557Z,13.30
2023-05-09T00:15:13.001Z,13.30
2023-05-09T00:15:45.013Z,13.30
2023-05-09T00:16:20.624Z,13.30
2023-05-09T00:16:53.591Z,13.20
2023-05-09T00:17:26.759Z,13.20
2023-05-09T00:17:59.713Z,13.10
2023-05-09T00:18:33.945Z,13.10
2023-05-09T00:19:06.931Z,13.10
2023-05-09T00:19:40.110Z,13.10
2023-05-09T00:20:12.736Z,13.10
2023-05-09T00:20:44.508Z,13.10
2023-05-09T00:21:17.247Z,13.10
2023-05-09T00:21:49.023Z,13.10
2023-05-09T00:22:21.444Z,13.10
2023-05-09T00:22:55.218Z,13.10
2023-05-09T00:23:27.028Z,13.10
2023-05-09T00:24:00.974Z,13.10
2023-05-09T00:24:33.763Z,13.10
2023-05-09T00:25:06.950Z,13.10
2023-05-09T00:25:38.777Z,13.10
2023-05-09T00:26:11.695Z,13.10
2023-05-09T00:26:43.525Z,13.10
2023-05-09T00:27:16.196Z,13.10
2023-05-09T00:27:48.961Z,13.10
2023-05-09T00:28:20.752Z,13.20
2023-05-09T00:28:52.746Z,13.10
2023-05-09T00:29:24.544Z,13.10
2023-05-09T00:29:57.410Z,13.20
2023-05-09T00:30:29.192Z,13.10
2023-05-09T00:31:00.977Z,13.20
2023-05-09T00:31:33.776Z,13.20
2023-05-09T00:32:06.169Z,13.20
2023-05-09T00:32:40.140Z,13.20
2023-05-09T00:33:13.101Z,13.20
2023-05-09T00:33:44.930Z,13.20
2023-05-09T00:34:16.709Z,13.20
2023-05-09T00:34:48.494Z,13.20
2023-05-09T00:35:21.233Z,13.20
2023-05-09T00:35:53.127Z,13.20
2023-05-09T00:36:24.963Z,13.10
2023-05-09T00:36:57.732Z,13.10
2023-05-09T00:37:31.208Z,13.10
2023-05-09T00:38:03.032Z,13.10
2023-05-09T00:38:35.865Z,13.10
2023-05-09T00:39:09.596Z,13.20
2023-05-09T00:39:41.370Z,13.00
2023-05-09T00:40:14.623Z,13.00
2023-05-09T00:40:46.575Z,13.00
2023-05-09T00:41:18.393Z,13.00
2023-05-09T00:41:51.904Z,13.00
2023-05-09T00:42:23.704Z,13.00
2023-05-09T00:42:58.125Z,13.00
2023-05-09T00:43:31.120Z,13.00
2023-05-09T00:44:02.964Z,13.10
2023-05-09T00:44:34.741Z,13.10
2023-05-09T00:45:09.003Z,13.00
2023-05-09T00:45:41.356Z,13.00
2023-05-09T00:46:13.216Z,13.00
2023-05-09T00:46:45.373Z,13.00
2023-05-09T00:47:18.272Z,13.00
2023-05-09T00:47:50.338Z,13.00
2023-05-09T00:48:22.550Z,13.00
2023-05-09T00:48:56.016Z,13.00
2023-05-09T00:49:28.833Z,13.00
2023-05-09T00:50:01.339Z,13.00
2023-05-09T00:50:33.171Z,13.00
2023-05-09T00:51:06.059Z,13.00
2023-05-09T00:51:39.185Z,13.00
2023-05-09T00:52:11.045Z,13.00
2023-05-09T00:52:44.046Z,13.00
2023-05-09T00:53:15.836Z,13.00
2023-05-09T00:53:47.840Z,12.90
2023-05-09T00:54:21.982Z,12.90
2023-05-09T00:54:54.597Z,12.90
2023-05-09T00:55:27.150Z,12.90
2023-05-09T00:56:01.427Z,12.90
2023-05-09T00:56:33.282Z,12.90
2023-05-09T00:57:05.241Z,12.80
2023-05-09T00:57:37.294Z,12.80
2023-05-09T00:58:10.079Z,12.80
2023-05-09T00:58:41.976Z,12.80
2023-05-09T00:59:15.291Z,12.80
2023-05-09T00:59:49.787Z,12.80
2023-05-09T01:00:22.029Z,12.80
2023-05-09T01:00:53.843Z,12.70
2023-05-09T01:01:26.731Z,12.70
2023-05-09T01:01:58.652Z,12.70
2023-05-09T01:02:31.424Z,12.60
2023-05-09T01:03:04.871Z,12.60
2023-05-09T01:03:38.654Z,12.60
2023-05-09T01:04:11.649Z,12.60
2023-05-09T01:04:45.567Z,12.50
2023-05-09T01:05:17.678Z,12.50
2023-05-09T01:05:56.622Z,12.50
2023-05-09T01:06:39.712Z,12.50
2023-05-09T01:07:19.038Z,12.40
2023-05-09T01:07:56.857Z,12.40
2023-05-09T01:08:42.134Z,12.40
2023-05-09T01:09:24.265Z,12.40
2023-05-09T01:10:04.739Z,12.30
2023-05-09T01:10:44.528Z,12.30
2023-05-09T01:11:27.106Z,12.20
2023-05-09T01:12:07.076Z,12.20
2023-05-09T01:12:46.228Z,12.20
2023-05-09T01:13:24.979Z,12.20
2023-05-09T01:14:06.585Z,12.20
2023-05-09T01:14:45.646Z,12.20
2023-05-09T01:15:24.018Z,12.20
2023-05-09T01:16:05.988Z,12.20
2023-05-09T01:16:42.671Z,12.20
2023-05-09T01:17:25.257Z,12.20
2023-05-09T01:18:01.119Z,12.20
2023-05-09T01:18:41.260Z,12.30
2023-05-09T01:19:33.247Z,12.20
2023-05-09T01:20:13.913Z,12.30
2023-05-09T01:20:51.807Z,12.30
2023-05-09T01:21:29.181Z,12.30
2023-05-09T01:22:05.190Z,12.30
2023-05-09T01:22:39.601Z,12.30
2023-05-09T01:23:48.711Z,12.20
2023-05-09T01:24:47.857Z,12.30
2023-05-09T01:25:42.839Z,12.20
2023-05-09T01:26:19.457Z,12.10
2023-05-09T01:27:18.276Z,12.10
2023-05-09T01:27:58.020Z,12.10
2023-05-09T01:28:44.023Z,12.10
2023-05-09T01:29:36.860Z,12.10
2023-05-09T01:30:11.874Z,12.20
2023-05-09T01:30:47.592Z,12.20
2023-05-09T01:31:20.525Z,12.20
2023-05-09T01:31:54.621Z,12.20
2023-05-09T01:32:29.542Z,12.30
2023-05-09T01:33:06.650Z,12.20
2023-05-09T01:33:40.819Z,12.20
2023-05-09T01:34:18.367Z,12.10
2023-05-09T01:34:52.275Z,12.10
2023-05-09T01:35:26.658Z,12.10
2023-05-09T01:36:04.208Z,12.00
2023-05-09T01:36:39.233Z,12.00
2023-05-09T01:37:14.537Z,12.10
2023-05-09T01:37:50.960Z,12.10
2023-05-09T01:38:25.300Z,12.10
2023-05-09T01:38:58.123Z,12.10
2023-05-09T01:39:33.709Z,12.10
2023-05-09T01:40:10.336Z,12.10
2023-05-09T01:40:43.106Z,12.10
2023-05-09T01:41:17.593Z,12.20
2023-05-09T01:41:50.495Z,12.20
2023-05-09T01:42:25.059Z,12.20
2023-05-09T01:43:00.283Z,12.20
2023-05-09T01:43:34.559Z,12.20
2023-05-09T01:44:11.068Z,12.20
2023-05-09T01:44:47.775Z,12.30
2023-05-09T01:45:20.512Z,12.20
2023-05-09T01:45:53.436Z,12.20
2023-05-09T01:46:28.245Z,12.20
2023-05-09T01:47:01.528Z,12.10
2023-05-09T01:47:34.038Z,12.10
2023-05-09T01:48:09.381Z,12.10
2023-05-09T01:48:42.542Z,12.10
2023-05-09T01:49:15.013Z,12.10
2023-05-09T01:49:49.150Z,12.10
2023-05-09T01:50:22.600Z,12.20
2023-05-09T01:50:55.711Z,12.20
2023-05-09T01:51:31.531Z,12.20
2023-05-09T01:52:08.163Z,12.20
2023-05-09T01:52:42.647Z,12.20
2023-05-09T01:53:17.148Z,12.20
2023-05-09T01:53:51.335Z,12.10
2023-05-09T01:54:26.084Z,12.10
2023-05-09T01:55:00.251Z,12.20
2023-05-09T01:55:34.583Z,12.20
2023-05-09T01:56:09.372Z,12.20
2023-05-09T01:56:44.104Z,12.10
2023-05-09T01:57:18.679Z,12.20
2023-05-09T01:57:50.814Z,12.20
2023-05-09T01:58:24.550Z,12.20
2023-05-09T01:58:57.744Z,12.20
2023-05-09T01:59:31.805Z,12.20
2023-05-09T02:00:08.941Z,12.20
2023-05-09T02:00:41.225Z,12.30
2023-05-09T02:01:14.690Z,12.20
2023-05-09T02:01:48.251Z,12.20
2023-05-09T02:02:21.039Z,12.30
2023-05-09T02:02:54.240Z,12.30
2023-05-09T02:03:27.626Z,12.20
2023-05-09T02:04:00.269Z,12.30
2023-05-09T02:04:32.928Z,12.30
2023-05-09T02:05:06.992Z,12.20
2023-05-09T02:05:39.854Z,12.20
2023-05-09T02:06:12.599Z,12.20
2023-05-09T02:06:46.837Z,12.30
2023-05-09T02:07:19.255Z,12.20
2023-05-09T02:07:51.692Z,12.20
2023-05-09T02:08:24.683Z,12.20
2023-05-09T02:08:57.555Z,12.20
2023-05-09T02:09:29.452Z,12.20
2023-05-09T02:10:03.128Z,12.20
2023-05-09T02:10:36.688Z,12.20
2023-05-09T02:11:08.494Z,12.20
2023-05-09T02:11:40.822Z,12.20
2023-05-09T02:12:14.388Z,12.20
2023-05-09T02:12:46.203Z,12.10
2023-05-09T02:13:18.193Z,12.20
2023-05-09T02:13:51.170Z,12.10
2023-05-09T02:14:23.155Z,12.20
2023-05-09T02:14:55.008Z,12.20
2023-05-09T02:15:31.249Z,12.20
2023-05-09T02:16:03.339Z,12.20
2023-05-09T02:16:35.499Z,12.20
2023-05-09T02:17:09.464Z,12.20
2023-05-09T02:17:42.552Z,12.20
2023-05-09T02:18:14.457Z,12.20
2023-05-09T02:18:47.013Z,12.20
2023-05-09T02:19:19.754Z,12.20
2023-05-09T02:19:51.573Z,12.10
2023-05-09T02:20:23.433Z,12.20
2023-05-09T02:20:56.744Z,12.10
2023-05-09T02:21:29.248Z,12.20
2023-05-09T02:22:01.902Z,12.20
2023-05-09T02:22:34.692Z,12.20
2023-05-09T02:23:06.581Z,12.10
2023-05-09T02:23:38.597Z,12.10
2023-05-09T02:24:11.601Z,12.10
2023-05-09T02:24:44.047Z,12.00
2023-05-09T02:25:17.115Z,12.00
2023-05-09T02:25:50.577Z,12.00
2023-05-09T02:26:22.608Z,12.00
2023-05-09T02:26:55.230Z,12.00
2023-05-09T02:27:28.560Z,12.00
2023-05-09T02:28:01.268Z,12.00
2023-05-09T02:28:33.823Z,12.00
2023-05-09T02:29:08.561Z,12.00
2023-05-09T02:29:44.270Z,11.90
2023-05-09T02:30:20.977Z,11.90
2023-05-09T02:30:58.505Z,11.90
2023-05-09T02:31:31.618Z,11.80
2023-05-09T02:32:05.401Z,11.80
2023-05-09T02:32:40.918Z,11.80
2023-05-09T02:33:13.770Z,11.80
2023-05-09T02:33:47.735Z,11.80
2023-05-09T02:34:21.475Z,11.80
2023-05-09T02:34:55.437Z,11.80
2023-05-09T02:35:28.836Z,11.80
2023-05-09T02:36:02.257Z,11.80
2023-05-09T02:36:34.670Z,11.90
2023-05-09T02:37:07.386Z,11.90
2023-05-09T02:37:40.438Z,11.90
2023-05-09T02:38:12.887Z,11.90
2023-05-09T02:38:45.413Z,11.90
2023-05-09T02:39:18.426Z,11.90
2023-05-09T02:39:50.306Z,11.90
2023-05-09T02:40:23.099Z,11.90
2023-05-09T02:40:55.918Z,11.90
2023-05-09T02:41:28.349Z,11.90
2023-05-09T02:42:06.859Z,11.90
2023-05-09T02:42:39.624Z,11.90
2023-05-09T02:43:11.536Z,11.80
2023-05-09T02:43:43.745Z,11.80
2023-05-09T02:44:15.692Z,11.80
2023-05-09T02:44:48.577Z,11.80
2023-05-09T02:45:20.476Z,11.80
2023-05-09T02:45:54.812Z,11.90
2023-05-09T02:46:26.749Z,11.90
2023-05-09T02:46:58.733Z,11.80
2023-05-09T02:47:31.824Z,11.80
2023-05-09T02:48:06.241Z,11.80
2023-05-09T02:48:40.178Z,11.80
2023-05-09T02:49:22.835Z,11.80
2023-05-09T02:50:03.864Z,11.80
2023-05-09T02:50:38.053Z,11.80
2023-05-09T02:51:09.868Z,11.80
2023-05-09T02:51:41.649Z,11.70
2023-05-09T02:52:14.601Z,11.80
2023-05-09T02:52:46.604Z,11.70
2023-05-09T02:53:18.495Z,11.70
2023-05-09T02:53:51.257Z,11.60
2023-05-09T02:54:23.061Z,11.70
2023-05-09T02:54:54.863Z,11.70
2023-05-09T02:55:28.355Z,11.70
2023-05-09T02:56:00.158Z,11.60
2023-05-09T02:56:31.981Z,11.70
2023-05-09T02:57:05.034Z,11.70
2023-05-09T02:57:36.873Z,11.70
2023-05-09T02:58:14.088Z,11.70
2023-05-09T02:58:51.102Z,11.80
2023-05-09T02:59:22.947Z,11.70
2023-05-09T02:59:54.728Z,11.80
2023-05-09T03:00:27.486Z,11.80
2023-05-09T03:01:00.777Z,11.70
2023-05-09T03:01:32.724Z,11.80
2023-05-09T03:02:06.390Z,11.80
2023-05-09T03:02:38.966Z,11.80
2023-05-09T03:03:11.237Z,11.80
2023-05-09T03:03:43.226Z,11.80
2023-05-09T03:04:16.482Z,11.80
2023-05-09T03:04:48.295Z,11.80
2023-05-09T03:05:20.494Z,11.80
2023-05-09T03:05:53.270Z,11.80
2023-05-09T03:06:25.060Z,11.80
2023-05-09T03:06:56.855Z,11.80
2023-05-09T03:07:29.605Z,11.80
2023-05-09T03:08:01.413Z,11.80
2023-05-09T03:08:33.228Z,11.80
2023-05-09T03:09:06.981Z,11.80
2023-05-09T03:09:40.524Z,11.80
2023-05-09T03:10:13.153Z,11.80
2023-05-09T03:10:45.985Z,11.80
2023-05-09T03:11:17.914Z,11.80
2023-05-09T03:11:50.283Z,11.80
2023-05-09T03:12:23.077Z,11.80
2023-05-09T03:12:54.938Z,11.80
2023-05-09T03:13:26.797Z,11.80
2023-05-09T03:13:59.641Z,11.80
2023-05-09T03:14:31.600Z,11.80
2023-05-09T03:15:04.162Z,11.80
2023-05-09T03:15:36.971Z,11.80
2023-05-09T03:16:13.810Z,11.80
2023-05-09T03:16:45.640Z,11.70
2023-05-09T03:17:21.191Z,11.70
2023-05-09T03:17:53.115Z,11.70
2023-05-09T03:18:25.242Z,11.70
2023-05-09T03:18:58.098Z,11.60
2023-05-09T03:19:29.886Z,11.70
2023-05-09T03:20:04.058Z,11.70
2023-05-09T03:20:37.213Z,11.70
2023-05-09T03:21:08.999Z,11.70
2023-05-09T03:21:41.749Z,11.70
2023-05-09T03:22:14.645Z,11.70
2023-05-09T03:22:48.232Z,11.70
2023-05-09T03:23:20.282Z,11.70
2023-05-09T03:23:52.167Z,11.70
2023-05-09T03:24:26.405Z,11.70
2023-05-09T03:24:58.172Z,11.70
2023-05-09T03:25:30.004Z,11.70
2023-05-09T03:26:02.785Z,11.60
2023-05-09T03:26:35.578Z,11.70
2023-05-09T03:27:07.350Z,11.60
2023-05-09T03:27:40.303Z,11.70
2023-05-09T03:28:12.118Z,11.60
2023-05-09T03:28:44.098Z,11.70
2023-05-09T03:29:16.872Z,11.70
2023-05-09T03:29:48.657Z,11.70
2023-05-09T03:30:20.438Z,11.70
2023-05-09T03:30:53.180Z,11.70
2023-05-09T03:31:26.783Z,11.60
2023-05-09T03:31:58.762Z,11.60
2023-05-09T03:32:31.591Z,11.60
2023-05-09T03:33:04.848Z,11.60
2023-05-09T03:33:36.850Z,11.60
2023-05-09T03:34:14.736Z,11.60
2023-05-09T03:34:46.537Z,11.60
2023-05-09T03:35:18.532Z,11.60
2023-05-09T03:35:51.503Z,11.60
2023-05-09T03:36:24.328Z,11.70
2023-05-09T03:36:56.212Z,11.70
2023-05-09T03:37:28.012Z,11.70
2023-05-09T03:38:00.782Z,11.70
2023-05-09T03:38:32.542Z,11.70
2023-05-09T03:39:04.338Z,11.70
2023-05-09T03:39:37.095Z,11.70
2023-05-09T03:40:09.718Z,11.70
2023-05-09T03:40:41.504Z,11.70
2023-05-09T03:41:16.242Z,11.70
2023-05-09T03:41:49.070Z,11.70
2023-05-09T03:42:22.169Z,11.70
2023-05-09T03:42:55.013Z,11.70
2023-05-09T03:43:26.880Z,11.70
2023-05-09T03:43:58.687Z,11.60
2023-05-09T03:44:31.664Z,11.60
2023-05-09T03:45:03.731Z,11.60
2023-05-09T03:45:36.030Z,11.50
2023-05-09T03:46:09.222Z,11.60
2023-05-09T03:46:42.473Z,11.50
2023-05-09T03:47:14.340Z,11.60
2023-05-09T03:47:47.204Z,11.60
2023-05-09T03:48:19.111Z,11.50
2023-05-09T03:48:50.888Z,11.50
2023-05-09T03:49:23.648Z,11.50
2023-05-09T03:49:55.626Z,11.50
2023-05-09T03:50:27.518Z,11.50
2023-05-09T03:51:00.339Z,11.50
2023-05-09T03:51:32.392Z,11.50
2023-05-09T03:52:04.364Z,11.50
2023-05-09T03:52:37.176Z,11.50
2023-05-09T03:53:10.210Z,11.50
2023-05-09T03:53:42.047Z,11.60
2023-05-09T03:54:13.828Z,11.60
2023-05-09T03:54:46.627Z,11.60
2023-05-09T03:55:18.526Z,11.50
2023-05-09T03:55:50.326Z,11.50
2023-05-09T03:56:23.323Z,11.40
2023-05-09T03:56:55.186Z,11.40
2023-05-09T03:57:27.044Z,11.40
2023-05-09T03:57:58.924Z,11.40
2023-05-09T03:58:31.813Z,11.40
2023-05-09T03:59:03.731Z,11.40
2023-05-09T03:59:35.716Z,11.40
2023-05-09T04:00:10.341Z,11.40
2023-05-09T04:00:42.414Z,11.40
2023-05-09T04:01:14.516Z,11.40
2023-05-09T04:01:48.876Z,11.40
2023-05-09T04:02:21.089Z,11.40
2023-05-09T04:02:53.693Z,11.40
2023-05-09T04:03:26.907Z,11.40
2023-05-09T04:03:59.067Z,11.40
2023-05-09T04:04:30.983Z,11.40
2023-05-09T04:05:04.218Z,11.50
2023-05-09T04:05:36.116Z,11.50
2023-05-09T04:06:08.195Z,11.50
2023-05-09T04:06:41.087Z,11.40
2023-05-09T04:07:12.994Z,11.50
2023-05-09T04:07:44.892Z,11.40
2023-05-09T04:08:17.688Z,11.40
2023-05-09T04:08:49.537Z,11.50
2023-05-09T04:09:21.446Z,11.50
2023-05-09T04:09:55.490Z,11.50
2023-05-09T04:10:27.442Z,11.40
2023-05-09T04:10:59.347Z,11.50
2023-05-09T04:11:32.106Z,11.50
2023-05-09T04:12:04.128Z,11.60
2023-05-09T04:12:35.917Z,11.50
2023-05-09T04:13:08.047Z,11.50
2023-05-09T04:13:40.922Z,11.50
2023-05-09T04:14:12.698Z,11.50
2023-05-09T04:14:46.164Z,11.60
2023-05-09T04:15:20.247Z,11.50
2023-05-09T04:15:52.079Z,11.50
2023-05-09T04:16:23.952Z,11.60
2023-05-09T04:16:58.196Z,11.60
2023-05-09T04:17:30.068Z,11.50
2023-05-09T04:18:02.009Z,11.60
2023-05-09T04:18:34.907Z,11.60
2023-05-09T04:19:07.128Z,11.50
2023-05-09T04:19:38.993Z,11.60
2023-05-09T04:20:13.039Z,11.60
2023-05-09T04:20:44.829Z,11.60
2023-05-09T04:21:16.649Z,11.60
2023-05-09T04:21:49.415Z,11.50
2023-05-09T04:22:21.285Z,11.50
2023-05-09T04:22:53.088Z,11.50
2023-05-09T04:23:25.867Z,11.60
2023-05-09T04:23:58.328Z,11.60
2023-05-09T04:24:30.323Z,11.60
2023-05-09T04:25:03.423Z,11.60
2023-05-09T04:25:35.450Z,11.60
2023-05-09T04:26:07.347Z,11.70
2023-05-09T04:26:40.283Z,11.60
2023-05-09T04:27:12.132Z,11.60
2023-05-09T04:27:43.916Z,11.60
2023-05-09T04:28:16.690Z,11.60
2023-05-09T04:28:48.594Z,11.60
2023-05-09T04:29:21.381Z,11.60
2023-05-09T04:29:53.717Z,11.60
2023-05-09T04:30:27.047Z,11.60
2023-05-09T04:30:59.914Z,11.60
2023-05-09T04:31:31.883Z,11.70
2023-05-09T04:32:05.607Z,11.70
2023-05-09T04:32:38.747Z,11.70
2023-05-09T04:33:11.551Z,11.70
2023-05-09T04:33:43.350Z,11.80
2023-05-09T04:34:16.128Z,11.80
2023-05-09T04:34:47.946Z,11.80
2023-05-09T04:35:20.871Z,11.80
2023-05-09T04:35:53.366Z,11.80
2023-05-09T04:36:27.510Z,11.80
2023-05-09T04:36:59.323Z,11.80
2023-05-09T04:37:32.552Z,11.80
2023-05-09T04:38:05.715Z,11.80
2023-05-09T04:38:37.523Z,11.80
2023-05-09T04:39:10.442Z,11.80
2023-05-09T04:39:43.344Z,11.80
2023-05-09T04:40:15.142Z,11.80
2023-05-09T04:40:47.327Z,11.80
2023-05-09T04:41:20.091Z,11.80
2023-05-09T04:41:52.460Z,11.70
2023-05-09T04:42:24.290Z,11.70
2023-05-09T04:42:58.835Z,11.70
2023-05-09T04:43:31.154Z,11.70
2023-05-09T04:44:03.329Z,11.70
2023-05-09T04:44:36.243Z,11.70
2023-05-09T04:45:09.290Z,11.70
2023-05-09T04:45:41.368Z,11.70
2023-05-09T04:46:14.118Z,11.80
2023-05-09T04:46:46.268Z,11.80
2023-05-09T04:47:19.469Z,11.80
2023-05-09T04:47:52.306Z,11.80
2023-05-09T04:48:24.121Z,11.80
2023-05-09T04:48:56.129Z,11.80
2023-05-09T04:49:28.891Z,11.80
2023-05-09T04:50:00.899Z,11.80
2023-05-09T04:50:32.748Z,11.80
2023-05-09T04:51:05.633Z,11.80
2023-05-09T04:51:37.445Z,11.70
2023-05-09T04:52:09.243Z,11.70
2023-05-09T04:52:41.198Z,11.80
2023-05-09T04:53:13.957Z,11.80
2023-05-09T04:53:45.838Z,11.80
2023-05-09T04:54:17.667Z,11.80
2023-05-09T04:54:50.883Z,11.80
2023-05-09T04:55:22.674Z,11.80
2023-05-09T04:55:56.317Z,11.80
2023-05-09T04:56:29.053Z,11.80
2023-05-09T04:57:13.771Z,11.80
2023-05-09T04:57:49.757Z,11.90
2023-05-09T04:58:21.577Z,11.90
2023-05-09T04:58:53.661Z,11.90
2023-05-09T04:59:26.480Z,11.90
2023-05-09T04:59:58.312Z,11.90
2023-05-09T05:00:30.213Z,12.00
2023-05-09T05:01:02.012Z,11.90
2023-05-09T05:01:34.806Z,11.90
2023-05-09T05:02:06.769Z,11.90
2023-05-09T05:02:39.938Z,11.90
2023-05-09T05:03:12.760Z,12.00
2023-05-09T05:03:45.923Z,12.00
2023-05-09T05:04:17.751Z,12.00
2023-05-09T05:04:50.614Z,12.10
2023-05-09T05:05:25.474Z,12.10
2023-05-09T05:05:57.601Z,12.10
2023-05-09T05:06:31.663Z,12.20
2023-05-09T05:07:03.521Z,12.20
2023-05-09T05:07:35.378Z,12.20
2023-05-09T05:08:08.120Z,12.20
2023-05-09T05:08:39.985Z,12.20
2023-05-09T05:09:11.760Z,12.20
2023-05-09T05:09:44.516Z,12.20
2023-05-09T05:10:16.393Z,12.30
2023-05-09T05:10:49.491Z,12.30
2023-05-09T05:11:22.218Z,12.30
2023-05-09T05:12:00.797Z,12.30
2023-05-09T05:12:34.429Z,12.30
2023-05-09T05:13:07.318Z,12.30
2023-05-09T05:13:39.149Z,12.30
2023-05-09T05:14:12.012Z,12.30
2023-05-09T05:14:43.817Z,12.20
2023-05-09T05:15:19.234Z,12.20
2023-05-09T05:15:51.733Z,12.20
2023-05-09T05:16:23.644Z,12.30
2023-05-09T05:16:56.404Z,12.30
2023-05-09T05:17:29.434Z,12.30
2023-05-09T05:18:02.714Z,12.30
2023-05-09T05:18:35.556Z,12.30
2023-05-09T05:19:07.370Z,12.30
2023-05-09T05:19:39.167Z,12.30
2023-05-09T05:20:12.397Z,12.30
2023-05-09T05:20:44.440Z,12.30
2023-05-09T05:21:16.267Z,12.30
2023-05-09T05:21:49.088Z,12.30
2023-05-09T05:22:20.917Z,12.20
2023-05-09T05:22:54.413Z,12.20
2023-05-09T05:23:27.264Z,12.30
2023-05-09T05:23:59.055Z,12.30
2023-05-09T05:24:30.911Z,12.30
2023-05-09T05:25:05.007Z,12.30
2023-05-09T05:25:36.824Z,12.30
2023-05-09T05:26:08.657Z,12.30
2023-05-09T05:26:41.430Z,12.30
2023-05-09T05:27:14.217Z,12.20
2023-05-09T05:27:45.978Z,12.20
2023-05-09T05:28:18.695Z,12.20
2023-05-09T05:28:55.221Z,12.20
2023-05-09T05:29:27.002Z,12.20
2023-05-09T05:29:59.905Z,12.20
2023-05-09T05:30:34.054Z,12.20
2023-05-09T05:31:06.235Z,12.20
2023-05-09T05:31:39.051Z,12.10
2023-05-09T05:32:11.181Z,12.10
2023-05-09T05:32:44.060Z,12.10
2023-05-09T05:33:17.277Z,12.10
2023-05-09T05:33:49.117Z,12.20
2023-05-09T05:34:21.947Z,12.20
2023-05-09T05:34:53.753Z,12.20
2023-05-09T05:35:27.040Z,12.30
2023-05-09T05:35:59.818Z,12.30
2023-05-09T05:36:32.028Z,12.30
2023-05-09T05:37:03.856Z,12.40
2023-05-09T05:37:36.651Z,12.40
2023-05-09T05:38:08.534Z,12.40
2023-05-09T05:38:40.401Z,12.50
2023-05-09T05:39:13.141Z,12.50
2023-05-09T05:39:45.003Z,12.50
2023-05-09T05:40:16.913Z,12.50
2023-05-09T05:40:49.738Z,12.50
2023-05-09T05:41:22.328Z,12.60
2023-05-09T05:41:54.182Z,12.60
2023-05-09T05:42:27.011Z,12.50
2023-05-09T05:42:58.857Z,12.50
2023-05-09T05:43:30.991Z,12.50
2023-05-09T05:44:02.846Z,12.50
2023-05-09T05:44:35.663Z,12.60
2023-05-09T05:45:08.784Z,12.60
2023-05-09T05:45:40.706Z,12.60
2023-05-09T05:46:13.554Z,12.60
2023-05-09T05:46:45.364Z,12.60
2023-05-09T05:47:17.160Z,12.60
2023-05-09T05:47:50.428Z,12.60
2023-05-09T05:48:24.113Z,12.70
2023-05-09T05:48:56.595Z,12.70
2023-05-09T05:49:29.371Z,12.70
2023-05-09T05:50:01.680Z,12.70
2023-05-09T05:50:34.050Z,12.70
2023-05-09T05:51:06.836Z,12.70
2023-05-09T05:51:38.602Z,12.60
2023-05-09T05:52:10.420Z,12.60
2023-05-09T05:52:43.233Z,12.60
2023-05-09T05:53:15.033Z,12.60
2023-05-09T05:53:48.122Z,12.60
2023-05-09T05:54:19.905Z,12.60
2023-05-09T05:54:52.093Z,12.60
2023-05-09T05:55:24.930Z,12.60
2023-05-09T05:55:56.729Z,12.60
2023-05-09T05:56:29.490Z,12.70
2023-05-09T05:57:01.297Z,12.70
2023-05-09T05:57:34.410Z,12.80
2023-05-09T05:58:07.149Z,12.80
2023-05-09T05:58:38.927Z,12.90
2023-05-09T05:59:13.094Z,12.90
2023-05-09T05:59:48.619Z,13.00
2023-05-09T06:00:23.348Z,12.90
2023-05-09T06:00:55.243Z,12.90
2023-05-09T06:01:28.008Z,12.90
2023-05-09T06:02:00.174Z,12.90
2023-05-09T06:02:32.167Z,13.00
2023-05-09T06:03:05.403Z,13.00
2023-05-09T06:03:38.700Z,13.00
2023-05-09T06:04:10.674Z,13.00
2023-05-09T06:04:43.552Z,13.00
2023-05-09T06:05:15.532Z,12.90
2023-05-09T06:05:48.898Z,13.00
2023-05-09T06:06:21.768Z,13.00
2023-05-09T06:06:53.558Z,13.00
2023-05-09T06:07:26.633Z,13.00
2023-05-09T06:07:58.440Z,13.00
2023-05-09T06:08:30.755Z,13.10
2023-05-09T06:09:03.549Z,13.10
2023-05-09T06:09:35.623Z,13.10
2023-05-09T06:10:09.423Z,13.10
2023-05-09T06:10:41.599Z,13.10
2023-05-09T06:11:13.496Z,13.20
2023-05-09T06:11:46.274Z,13.10
2023-05-09T06:12:18.056Z,13.20
2023-05-09T06:12:50.863Z,13.20
2023-05-09T06:13:22.885Z,13.20
2023-05-09T06:13:54.739Z,13.30
2023-05-09T06:14:27.518Z,13.20
2023-05-09T06:14:59.334Z,13.20
2023-05-09T06:15:31.197Z,13.20
2023-05-09T06:16:18.697Z,13.10
2023-05-09T06:16:52.299Z,13.10
2023-05-09T06:17:25.238Z,13.10
2023-05-09T06:17:57.163Z,13.10
2023-05-09T06:18:30.469Z,13.10
2023-05-09T06:19:03.666Z,13.20
2023-05-09T06:19:35.471Z,13.30
2023-05-09T06:20:09.038Z,13.30
2023-05-09T06:20:40.835Z,13.40
2023-05-09T06:21:13.616Z,13.30
2023-05-09T06:21:45.615Z,13.30
2023-05-09T06:22:17.508Z,13.40
2023-05-09T06:22:50.291Z,13.40
2023-05-09T06:23:22.247Z,13.40
2023-05-09T06:24:35.663Z,13.50
2023-05-09T06:25:10.603Z,13.50
2023-05-09T06:25:42.599Z,13.50
2023-05-09T06:26:15.409Z,13.50
2023-05-09T06:26:47.304Z,13.50
2023-05-09T06:27:19.261Z,13.50
2023-05-09T06:27:52.063Z,13.50
2023-05-09T06:28:24.024Z,13.50
2023-05-09T06:28:56.024Z,13.50
2023-05-09T06:29:28.868Z,13.50
2023-05-09T06:30:02.690Z,13.50
2023-05-09T06:30:38.890Z,13.60
2023-05-09T06:31:10.873Z,13.60
2023-05-09T06:31:42.790Z,13.70
2023-05-09T06:32:18.382Z,13.70
2023-05-09T06:32:50.162Z,13.80
2023-05-09T06:33:23.158Z,13.80
2023-05-09T06:33:54.960Z,13.80
2023-05-09T06:34:29.142Z,13.90
2023-05-09T06:35:00.995Z,13.90
2023-05-09T06:35:32.802Z,13.90
2023-05-09T06:36:06.242Z,14.00
2023-05-09T06:36:38.046Z,14.00
2023-05-09T06:37:09.959Z,14.00
2023-05-09T06:37:42.728Z,14.00
2023-05-09T06:38:14.536Z,14.00
2023-05-09T06:38:46.379Z,14.00
2023-05-09T06:39:19.188Z,13.90
2023-05-09T06:39:51.243Z,13.90
2023-05-09T06:40:23.040Z,13.80
2023-05-09T06:40:55.921Z,13.80
2023-05-09T06:41:27.771Z,13.80
2023-05-09T06:41:59.581Z,13.80
2023-05-09T06:42:33.591Z,13.80
2023-05-09T06:43:05.433Z,13.80
2023-05-09T06:43:37.210Z,13.80
2023-05-09T06:44:09.990Z,13.80
2023-05-09T06:44:43.606Z,13.90
2023-05-09T06:45:15.989Z,13.90
2023-05-09T06:45:49.102Z,13.90
2023-05-09T06:46:20.989Z,13.90
2023-05-09T06:46:52.888Z,13.90
2023-05-09T06:47:25.851Z,13.90
2023-05-09T06:47:57.751Z,13.90
2023-05-09T06:48:30.730Z,13.90
2023-05-09T06:49:02.576Z,13.90
2023-05-09T06:49:36.783Z,13.90
2023-05-09T06:50:09.449Z,13.90
2023-05-09T06:50:41.217Z,14.00
2023-05-09T06:51:13.979Z,14.00
2023-05-09T06:51:45.787Z,14.00
2023-05-09T06:52:17.533Z,14.00
2023-05-09T06:52:50.406Z,13.90
2023-05-09T06:53:22.459Z,13.80
2023-05-09T06:53:55.257Z,13.80
2023-05-09T06:54:27.144Z,13.80
2023-05-09T06:54:59.029Z,13.90
2023-05-09T06:55:32.025Z,13.90
2023-05-09T06:56:04.382Z,13.80
2023-05-09T06:56:36.854Z,13.80
2023-05-09T06:57:09.887Z,13.70
2023-05-09T06:57:41.966Z,13.90
2023-05-09T06:58:14.017Z,13.80
2023-05-09T06:58:46.888Z,13.90
2023-05-09T06:59:19.012Z,13.80
2023-05-09T06:59:50.883Z,13.80
2023-05-09T07:00:24.135Z,13.80
2023-05-09T07:00:56.016Z,13.80
2023-05-09T07:01:27.984Z,13.90
2023-05-09T07:02:01.089Z,13.90
2023-05-09T07:02:33.093Z,13.90
2023-05-09T07:03:07.293Z,13.90
2023-05-09T07:03:40.092Z,14.00
2023-05-09T07:04:11.882Z,14.00
2023-05-09T07:04:45.115Z,14.00
2023-05-09T07:05:18.059Z,13.90
2023-05-09T07:05:50.171Z,14.00
2023-05-09T07:06:22.923Z,13.90
2023-05-09T07:06:54.712Z,14.00
2023-05-09T07:07:27.680Z,13.90
2023-05-09T07:07:59.513Z,14.00
2023-05-09T07:08:32.354Z,14.00
2023-05-09T07:09:04.277Z,14.00
2023-05-09T07:09:37.155Z,14.00